Latest Weather Observations for Warwick

IDQ60801

Issued at 3:02 pm EST Saturday 28 February 2015 (issued every 30 minutes, with the page automatically refreshed every 10 minutes)

About weather observations | Map of weather stations | Latest weather observations for QLD | Other Formats
Station Details ID: 041525 Name: WARWICK Lat: -28.21 Lon: 152.10 Height: 475.4 m
Data from the previous 72 hours. | See also: Recent months at Warwick
Date/Time
EST
Temp
°C
App
Temp
°C
Dew
Point
Rel
Hum
%
Delta-T
°C
Wind Press
QNH
hPa
Press
MSL
hPa
Rain
since 9 am
mm
Dir
 
Spd
km/h
Gust
km/h
Spd
kts
Gust
kts
28/03:00pm 28.5 29.9 18.6 55 6.5 SE 9 15 5 8 1009.5 1006.8 0.2
28/02:30pm 29.2 31.1 18.9 53 6.8 ESE 7 13 4 7 1009.4 1006.7 0.2
28/02:00pm 29.3 31.1 18.8 53 6.9 NE 7 11 4 6 1009.7 1007.1 0.2
28/01:30pm 29.3 31.7 17.9 50 7.4 ENE 2 9 1 5 1010.2 1007.6 0.2
28/01:00pm 29.1 31.7 19.3 55 6.5 SSW 4 9 2 5 1010.8 1008.1 0.2
28/12:30pm 27.7 29.5 18.8 58 5.8 SE 7 17 4 9 1011.2 1008.5 0.2
28/12:00pm 27.6 29.9 18.6 58 5.9 ENE 4 9 2 5 1011.5 1008.9 0.2
28/11:30am 27.3 30.1 18.9 60 5.5 S 2 9 1 5 1011.8 1009.2 0.2
28/11:00am 26.5 28.5 18.8 62 5.0 ESE 6 11 3 6 1012.2 1009.6 0.2
28/10:30am 25.5 27.4 18.6 65 4.5 SSE 6 13 3 7 1012.5 1009.9 0.2
28/10:00am 24.6 26.4 18.7 69 3.8 SSE 7 9 4 5 1012.9 1010.2 0.0
28/09:30am 23.7 25.5 18.4 72 3.4 E 6 9 3 5 1013.0 1010.3 0.0
28/09:00am 23.2 26.3 18.7 76 2.9 CALM 0 9 0 5 1013.0 1010.3 3.2
28/08:30am 22.0 24.4 18.9 82 2.0 ESE 4 9 2 5 1013.0 1010.3 3.2
28/08:00am 21.2 24.2 18.5 84 1.7 CALM 0 0 0 0 1012.9 1010.2 3.2
28/07:30am 21.0 24.3 19.1 89 1.2 CALM 0 0 0 0 1012.8 1010.1 3.2
28/07:00am 20.0 23.1 18.7 92 0.8 CALM 0 0 0 0 1012.4 1009.8 3.2
28/06:30am 18.6 21.5 18.1 97 0.3 CALM 0 0 0 0 1012.1 1009.5 3.2
28/06:00am 17.9 20.5 17.6 98 0.2 CALM 0 0 0 0 1011.9 1009.3 3.2
28/05:30am 18.2 20.9 17.7 97 0.3 CALM 0 0 0 0 1011.4 1008.7 3.2
28/05:00am 18.5 21.3 18.0 97 0.3 CALM 0 0 0 0 1011.2 1008.5 3.2
28/04:30am 19.1 22.1 18.5 96 0.4 CALM 0 0 0 0 1011.1 1008.4 3.2
28/04:00am 19.3 22.4 18.7 96 0.4 CALM 0 0 0 0 1010.9 1008.2 3.2
28/03:30am 19.5 22.6 18.7 95 0.5 CALM 0 0 0 0 1010.7 1008.0 3.2
28/03:00am 19.4 22.5 18.6 95 0.5 CALM 0 0 0 0 1010.7 1008.0 3.2
28/02:30am 19.6 21.6 18.8 95 0.5 NNE 6 7 3 4 1010.9 1008.2 3.2
28/02:00am 19.1 22.2 18.6 97 0.3 CALM 0 0 0 0 1011.2 1008.5 3.2
28/01:30am 19.0 22.0 18.4 96 0.4 CALM 0 0 0 0 1011.4 1008.7 3.2
28/01:00am 19.4 22.4 18.5 94 0.6 CALM 0 0 0 0 1011.4 1008.7 3.2
28/12:30am 19.4 22.5 18.6 95 0.5 CALM 0 0 0 0 1011.4 1008.7 3.2
28/12:00am 19.6 22.7 18.7 94 0.6 CALM 0 0 0 0 1011.6 1009.0 3.2
 
Date/Time
EST
Temp
°C
App
Temp
°C
Dew
Point
Rel
Hum
%
Delta-T
°C
Wind Press
QNH
hPa
Press
MSL
hPa
Rain
since 9 am
mm
Dir
 
Spd
km/h
Gust
km/h
Spd
kts
Gust
kts
27/11:30pm 19.9 23.0 18.6 92 0.8 CALM 0 0 0 0 1011.7 1009.1 3.2
27/11:00pm 20.3 23.1 18.9 92 0.9 ESE 2 7 1 4 1011.6 1009.0 3.2
27/10:30pm 20.8 21.9 18.9 89 1.2 E 11 19 6 10 1011.5 1008.9 3.2
27/10:00pm 19.6 22.1 19.0 96 0.4 SW 4 7 2 4 1011.4 1008.7 3.2
27/09:30pm 20.3 23.6 19.2 93 0.7 CALM 0 0 0 0 1011.0 1008.3 3.2
27/09:00pm 20.5 23.3 19.6 95 0.6 SE 4 11 2 6 1011.1 1008.4 3.2
27/08:30pm 20.6 23.7 19.5 93 0.7 ESE 2 7 1 4 1010.9 1008.2 3.2
27/08:00pm 21.0 23.9 19.8 93 0.8 ENE 4 7 2 4 1010.1 1007.5 3.2
27/07:30pm 21.7 22.7 19.5 87 1.4 SSW 13 17 7 9 1010.2 1007.6 2.6
27/07:00pm 22.5 24.4 18.9 80 2.3 ENE 7 11 4 6 1009.6 1007.0 2.6
27/06:30pm 23.3 24.4 18.8 76 2.9 E 11 17 6 9 1009.2 1006.5 2.6
27/06:00pm 23.8 24.2 18.9 74 3.2 E 15 20 8 11 1008.9 1006.2 2.6
27/05:30pm 24.4 25.5 19.7 75 3.1 E 13 19 7 10 1008.7 1006.0 2.6
27/05:00pm 25.2 27.3 20.9 77 2.9 ENE 11 13 6 7 1008.0 1005.4 2.6
27/04:30pm 24.3 27.4 21.0 82 2.2 N 6 13 3 7 1008.0 1005.4 2.6
27/04:00pm 23.2 26.4 20.5 85 1.8 W 4 11 2 6 1008.1 1005.5 2.0
27/03:30pm 25.3 26.1 18.2 64 4.6 WNW 11 15 6 8 1007.9 1005.3 0.0
27/03:00pm 26.9 28.4 17.6 56 6.0 W 6 13 3 7 1007.9 1005.3 0.0
27/02:30pm 26.8 28.3 18.1 59 5.6 NW 7 15 4 8 1008.2 1005.6 0.0
27/02:00pm 26.6 27.7 17.9 59 5.6 WNW 9 17 5 9 1008.1 1005.5 0.0
27/01:30pm 27.5 28.5 16.8 52 6.8 NW 7 13 4 7 1008.7 1006.0 0.0
27/01:00pm 27.1 27.9 17.4 55 6.2 NW 9 13 5 7 1008.9 1006.2 0.0
27/12:30pm 26.7 28.9 17.5 57 5.9 WSW 2 9 1 5 1009.3 1006.6 0.0
27/12:00pm 25.5 27.3 18.2 64 4.7 SW 6 11 3 6 1009.8 1007.2 0.0
27/11:30am 25.7 28.7 18.4 64 4.7 CALM 0 7 0 4 1010.2 1007.6 0.0
27/11:00am 25.1 27.5 17.9 64 4.6 ENE 2 9 1 5 1010.6 1007.9 0.0
27/10:30am 25.1 26.7 18.3 66 4.4 ENE 7 13 4 7 1010.8 1008.1 0.0
27/10:00am 25.2 28.1 21.8 81 2.3 NE 9 15 5 8 1010.7 1008.0 0.0
27/09:30am 23.7 25.8 18.2 71 3.5 N 4 11 2 6 1010.9 1008.2 0.0
27/09:00am 23.1 23.5 18.1 73 3.2 N 13 22 7 12 1010.8 1008.1 9.0
27/08:30am 22.6 22.4 18.6 78 2.6 NNE 17 26 9 14 1010.4 1007.8 9.0
27/08:00am 21.4 22.0 18.6 84 1.8 N 13 20 7 11 1010.3 1007.7 9.0
27/07:30am 20.4 21.2 18.2 87 1.4 N 11 15 6 8 1010.8 1008.1 9.0
27/07:00am 20.0 22.6 18.4 90 1.0 N 2 9 1 5 1010.6 1007.9 9.0
27/06:30am 19.0 22.0 18.5 97 0.3 CALM 0 0 0 0 1010.3 1007.7 9.0
27/06:00am 18.8 21.4 18.3 97 0.3 E 2 7 1 4 1010.2 1007.6 9.0
27/05:30am 19.3 20.9 17.9 92 0.9 NNE 6 13 3 7 1010.0 1007.4 9.0
27/05:00am 19.0 20.3 18.4 96 0.4 NW 9 13 5 7 1009.9 1007.3 8.8
27/04:30am 19.0 21.3 18.5 97 0.3 E 4 7 2 4 1009.8 1007.2 8.8
27/04:00am 19.1 20.0 18.5 96 0.4 NE 11 15 6 8 1009.7 1007.1 8.8
27/03:30am 19.2 20.6 18.7 97 0.3 - 9 19 5 10 1009.9 1007.3 6.6
27/03:00am 19.3 20.3 18.7 96 0.4 S 11 22 6 12 1009.7 1007.1 4.0
27/02:30am 19.5 19.5 18.1 92 0.9 NNE 15 22 8 12 1008.2 1005.6 4.0
27/02:00am 19.5 20.1 18.6 94 0.6 W 13 24 7 13 1009.0 1006.3 2.2
27/01:30am 19.7 22.0 18.6 93 0.7 E 4 11 2 6 1009.2 1006.5 1.6
27/01:00am 19.8 22.2 18.7 93 0.7 ESE 4 11 2 6 1009.0 1006.3 1.6
27/12:30am 19.6 21.5 18.5 93 0.7 SE 6 11 3 6 1009.1 1006.4 1.6
27/12:00am 20.2 20.1 17.8 86 1.5 E 15 24 8 13 1009.3 1006.6 1.6
 
Date/Time
EST
Temp
°C
App
Temp
°C
Dew
Point
Rel
Hum
%
Delta-T
°C
Wind Press
QNH
hPa
Press
MSL
hPa
Rain
since 9 am
mm
Dir
 
Spd
km/h
Gust
km/h
Spd
kts
Gust
kts
26/11:30pm 20.1 21.8 18.0 88 1.3 N 6 9 3 5 1009.6 1007.0 1.6
26/11:00pm 20.0 22.2 18.4 90 1.0 ESE 4 7 2 4 1009.4 1006.7 1.6
26/10:30pm 20.0 22.7 18.6 92 0.9 NNE 2 7 1 4 1009.7 1007.1 1.6
26/10:00pm 20.2 23.5 19.1 93 0.7 CALM 0 0 0 0 1009.9 1007.3 1.6
26/09:30pm 20.3 23.7 19.4 95 0.6 CALM 0 7 0 4 1010.2 1007.6 1.6
26/09:00pm 20.2 23.5 19.0 93 0.8 CALM 0 0 0 0 1010.0 1007.4 1.6
26/08:30pm 20.4 23.5 18.7 90 1.1 CALM 0 6 0 3 1009.8 1007.2 1.6
26/08:00pm 21.1 23.9 18.8 87 1.5 ENE 2 9 1 5 1009.5 1006.8 1.6
26/07:30pm 21.3 24.9 19.8 91 1.0 CALM 0 0 0 0 1009.4 1006.7 1.6
26/07:00pm 21.8 24.4 20.0 89 1.2 SE 6 9 3 5 1009.0 1006.3 1.6
26/06:30pm 21.8 24.8 20.1 90 1.1 WSW 4 9 2 5 1009.2 1006.5 1.6
26/06:00pm 22.3 24.1 20.3 88 1.3 SSE 11 20 6 11 1008.9 1006.2 1.6
26/05:30pm 24.5 25.3 18.1 67 4.1 SE 11 17 6 9 1008.1 1005.5 1.2
26/05:00pm 25.3 26.2 18.3 65 4.5 E 11 17 6 9 1007.8 1005.2 1.2
26/04:30pm 25.9 27.2 18.5 63 4.8 SE 9 17 5 9 1007.7 1005.1 1.2
26/04:00pm 25.4 26.6 19.0 67 4.2 ESE 11 20 6 11 1008.1 1005.5 1.2
26/03:30pm 25.5 26.4 19.2 68 4.1 SE 13 20 7 11 1008.6 1005.9 1.2
26/03:00pm 26.2 27.2 19.5 66 4.4 ENE 13 20 7 11 1008.5 1005.8 1.2
26/02:30pm 23.7 26.6 19.9 79 2.5 NE 4 9 2 5 1008.8 1006.1 1.2
26/02:00pm 25.0 25.5 17.5 63 4.8 W 11 15 6 8 1009.2 1006.5 0.0
26/01:30pm 27.2 27.9 16.2 51 6.9 W 7 13 4 7 1009.2 1006.5 0.0
26/01:00pm 27.7 29.1 16.3 49 7.2 SW 4 9 2 5 1009.6 1007.0 0.0
26/12:30pm 27.1 27.0 15.0 47 7.5 N 9 11 5 6 1009.9 1007.3 0.0
26/12:00pm 27.5 28.6 16.6 51 6.9 SSW 6 9 3 5 1010.2 1007.6 0.0
26/11:30am 27.6 28.1 16.5 50 7.0 NNE 9 15 5 8 1010.4 1007.8 0.0
26/11:00am 26.3 27.6 17.2 57 5.8 E 6 13 3 7 1010.8 1008.1 0.0
26/10:30am 25.0 26.3 17.1 61 5.0 SSE 6 13 3 7 1011.2 1008.5 0.0
26/10:00am 24.5 25.5 16.9 62 4.8 NE 7 11 4 6 1011.5 1008.9 0.0
26/09:30am 23.9 24.3 16.4 63 4.7 ENE 9 13 5 7 1011.7 1009.1 0.0
26/09:00am 23.3 24.5 16.9 67 4.0 SSE 6 17 3 9 1011.7 1009.1 0.0
26/08:30am 22.1 23.0 16.5 70 3.5 SE 7 11 4 6 1011.8 1009.2 0.0
26/08:00am 21.3 22.5 17.3 78 2.5 SE 7 11 4 6 1011.9 1009.3 0.0
26/07:30am 19.4 21.5 17.1 86 1.4 ESE 2 7 1 4 1011.6 1009.0 0.0
26/07:00am 18.4 19.4 16.8 90 1.0 ENE 7 11 4 6 1011.5 1008.9 0.0
26/06:30am 17.5 18.2 16.2 92 0.8 NE 7 9 4 5 1011.3 1008.6 0.0
26/06:00am 16.6 17.4 15.8 95 0.5 NNE 6 9 3 5 1011.2 1008.5 0.0
26/05:30am 16.5 18.3 15.5 94 0.6 CALM 0 0 0 0 1011.1 1008.4 0.0
26/05:00am 16.7 17.7 15.4 92 0.8 NE 4 7 2 4 1010.8 1008.1 0.0
26/04:30am 16.8 18.6 15.6 93 0.7 CALM 0 0 0 0 1010.7 1008.0 0.0
26/04:00am 16.7 18.6 15.7 94 0.6 CALM 0 0 0 0 1010.8 1008.1 0.0
26/03:30am 16.7 17.3 15.7 94 0.6 NE 7 11 4 6 1011.0 1008.3 0.0
26/03:00am 16.8 16.9 15.6 93 0.7 N 9 11 5 6 1011.2 1008.5 0.0
26/02:30am 16.9 17.7 15.9 94 0.6 NE 6 9 3 5 1011.4 1008.7 0.0
26/02:00am 17.3 17.8 15.6 90 1.0 NNE 7 11 4 6 1011.4 1008.7 0.0
26/01:30am 17.6 18.8 15.9 90 1.0 E 4 9 2 5 1011.8 1009.2 0.0
26/01:00am 18.1 19.3 16.0 87 1.3 ENE 4 9 2 5 1012.4 1009.8 0.0
26/12:30am 18.2 19.3 15.7 85 1.5 NE 4 9 2 5 1012.5 1009.9 0.0
26/12:00am 18.5 19.6 16.7 89 1.1 E 6 9 3 5 1012.9 1010.2 0.0
 
Date/Time
EST
Temp
°C
App
Temp
°C
Dew
Point
Rel
Hum
%
Delta-T
°C
Wind Press
QNH
hPa
Press
MSL
hPa
Rain
since 9 am
mm
Dir
 
Spd
km/h
Gust
km/h
Spd
kts
Gust
kts
25/11:30pm 18.9 19.6 17.0 89 1.2 NE 9 15 5 8 1012.9 1010.2 0.0
25/11:00pm 18.7 20.8 17.2 91 0.9 E 2 9 1 5 1013.1 1010.4 0.0
25/10:30pm 19.5 20.7 17.4 88 1.3 SE 7 11 4 6 1013.5 1010.9 0.0
25/10:00pm 19.8 20.6 17.4 86 1.5 SE 9 15 5 8 1013.4 1010.8 0.0
25/09:30pm 20.2 21.7 17.6 85 1.6 SE 6 11 3 6 1013.4 1010.8 0.0
25/09:00pm 20.8 21.4 17.8 83 1.9 SE 11 15 6 8 1013.2 1010.5 0.0
25/08:30pm 20.9 22.7 18.4 85 1.6 SE 6 11 3 6 1013.0 1010.3 0.0
25/08:00pm 21.6 22.5 18.5 82 2.0 SE 11 19 6 10 1012.3 1009.7 0.0
25/07:30pm 22.4 23.0 18.7 79 2.4 SE 13 22 7 12 1012.2 1009.6 0.0
25/07:00pm 22.9 25.4 18.2 75 3.0 SSE 2 9 1 5 1012.0 1009.4 0.0
25/06:30pm 24.2 25.4 18.3 69 3.8 SE 9 13 5 7 1011.4 1008.7 0.0
25/06:00pm 25.9 26.7 17.3 59 5.5 SE 9 17 5 9 1011.1 1008.4 0.0
25/05:30pm 26.7 25.9 17.1 55 6.1 SE 17 26 9 14 1010.6 1007.9 0.0
25/05:00pm 27.6 26.8 16.2 49 7.2 SE 15 26 8 14 1010.6 1007.9 0.0
25/04:30pm 28.3 27.7 15.7 46 7.9 SE 13 20 7 11 1010.7 1008.0 0.0
25/04:00pm 27.9 27.8 16.9 51 7.0 SE 13 20 7 11 1010.8 1008.1 0.0
25/03:30pm 28.3 28.4 17.4 51 7.0 SE 13 20 7 11 1011.0 1008.3 0.0

Other Formats:

Comma delimited format used in spreadsheet applications
http://www.bom.gov.au/fwo/IDQ60801/IDQ60801.94555.axf

JavaScript Object Notation format (JSON) in row-major order
http://www.bom.gov.au/fwo/IDQ60801/IDQ60801.94555.json